createdAt,value
2023-03-28T00:02:10.538Z,99739.16
2023-03-28T00:07:14.886Z,99750.78
2023-03-28T00:12:17.848Z,99748.44
2023-03-28T00:17:20.896Z,99772.31
2023-03-28T00:22:24.184Z,99775.97
2023-03-28T00:27:27.179Z,99781.66
2023-03-28T00:32:30.160Z,99789.25
2023-03-28T00:37:34.398Z,99795.38
2023-03-28T00:42:42.952Z,99802.34
2023-03-28T00:48:01.995Z,99798.19
2023-03-28T00:53:23.582Z,99801.13
2023-03-28T00:58:32.408Z,99811.69
2023-03-28T01:03:37.607Z,99815.97
2023-03-28T01:08:44.806Z,99826.44
2023-03-28T01:13:53.115Z,99834.34
2023-03-28T01:19:02.134Z,99832.09
2023-03-28T01:24:30.068Z,99836.94
2023-03-28T01:30:15.412Z,99839.44
2023-03-28T01:35:44.634Z,99842.34
2023-03-28T01:41:08.367Z,99846.25
2023-03-28T01:46:39.386Z,99856.81
2023-03-28T01:52:13.050Z,99861.91
2023-03-28T01:57:51.416Z,99864.53
2023-03-28T02:03:11.676Z,99873.19
2023-03-28T02:08:17.446Z,99882.69
2023-03-28T02:13:40.368Z,99885.66
2023-03-28T02:18:51.029Z,99878.97
2023-03-28T02:23:56.142Z,99899.16
2023-03-28T02:29:00.750Z,99890.69
2023-03-28T02:34:04.013Z,99896.97
2023-03-28T02:40:07.609Z,99904.78
2023-03-28T02:46:08.941Z,99909.69
2023-03-28T02:51:34.778Z,99924.31
2023-03-28T02:57:11.619Z,99949.25
2023-03-28T03:02:21.526Z,99952.75
2023-03-28T03:07:25.228Z,99963.28
2023-03-28T03:12:28.208Z,99968.84
2023-03-28T03:17:31.594Z,99981.03
2023-03-28T03:22:36.442Z,99990.75
2023-03-28T03:27:40.977Z,99988.16
2023-03-28T03:32:45.292Z,99993.47
2023-03-28T03:37:48.803Z,100011.03
2023-03-28T03:42:51.880Z,100020.00
2023-03-28T03:47:54.851Z,100016.56
2023-03-28T03:52:58.684Z,100023.75
2023-03-28T03:58:03.162Z,100024.06
2023-03-28T04:03:06.431Z,100033.78
2023-03-28T04:08:09.577Z,100029.81
2023-03-28T04:13:12.720Z,100046.31
2023-03-28T04:18:20.472Z,100052.59
2023-03-28T04:23:26.572Z,100057.38
2023-03-28T04:28:29.599Z,100054.22
2023-03-28T04:33:33.817Z,100055.50
2023-03-28T04:38:37.283Z,100058.09
2023-03-28T04:43:40.287Z,100072.19
2023-03-28T04:48:43.281Z,100062.47
2023-03-28T04:53:46.266Z,100075.03
2023-03-28T04:58:49.203Z,100073.91
2023-03-28T05:03:52.188Z,100084.59
2023-03-28T05:08:55.773Z,100087.50
2023-03-28T05:13:58.671Z,100090.72
2023-03-28T05:19:01.796Z,100106.00
2023-03-28T05:24:05.399Z,100103.00
2023-03-28T05:29:08.313Z,100103.44
2023-03-28T05:34:11.298Z,100113.34
2023-03-28T05:39:14.906Z,100122.44
2023-03-28T05:44:18.908Z,100128.91
2023-03-28T05:49:22.604Z,100136.25
2023-03-28T05:54:25.659Z,100149.41
2023-03-28T05:59:28.571Z,100147.03
2023-03-28T06:04:31.637Z,100158.63
2023-03-28T06:09:35.215Z,100157.03
2023-03-28T06:14:38.222Z,100161.41
2023-03-28T06:19:41.377Z,100178.03
2023-03-28T06:24:44.380Z,100182.41
2023-03-28T06:29:47.304Z,100197.13
2023-03-28T06:34:50.817Z,100197.34
2023-03-28T06:39:54.308Z,100208.53
2023-03-28T06:44:57.343Z,100229.19
2023-03-28T06:50:00.302Z,100234.63
2023-03-28T06:55:04.147Z,100233.00
2023-03-28T07:00:08.545Z,100236.50
2023-03-28T07:05:11.599Z,100230.81
2023-03-28T07:10:14.563Z,100235.50
2023-03-28T07:15:19.435Z,100226.16
2023-03-28T07:20:23.419Z,100229.19
2023-03-28T07:25:26.913Z,100228.41
2023-03-28T07:30:29.794Z,100239.03
2023-03-28T07:35:32.893Z,100238.44
2023-03-28T07:40:36.293Z,100247.41
2023-03-28T07:45:40.026Z,100238.31
2023-03-28T07:50:43.221Z,100241.56
2023-03-28T07:55:54.541Z,100236.53
2023-03-28T08:01:08.739Z,100233.75
2023-03-28T08:06:28.596Z,100215.09
2023-03-28T08:11:36.477Z,100226.88
2023-03-28T08:16:40.545Z,100231.63
2023-03-28T08:21:43.815Z,100227.53
2023-03-28T08:26:48.742Z,100231.91
2023-03-28T08:31:51.864Z,100224.91
2023-03-28T08:36:54.927Z,100240.19
2023-03-28T08:42:16.330Z,100232.41
2023-03-28T08:47:30.918Z,100239.50
2023-03-28T08:52:34.883Z,100223.38
2023-03-28T08:57:41.094Z,100206.34
2023-03-28T09:02:44.626Z,100225.34
2023-03-28T09:08:01.592Z,100199.56
2023-03-28T09:13:40.843Z,100188.91
2023-03-28T09:18:56.671Z,100195.78
2023-03-28T09:24:26.228Z,100192.81
2023-03-28T09:29:32.413Z,100191.19
2023-03-28T09:34:44.259Z,100182.22
2023-03-28T09:39:52.297Z,100202.63
2023-03-28T09:45:19.776Z,100198.00
2023-03-28T09:50:23.026Z,100195.34
2023-03-28T09:55:30.240Z,100198.91
2023-03-28T10:00:50.880Z,100209.16
2023-03-28T10:05:53.850Z,100203.97
2023-03-28T10:11:07.049Z,100206.97
2023-03-28T10:16:25.942Z,100213.09
2023-03-28T10:21:32.444Z,100200.59
2023-03-28T10:26:35.865Z,100190.31
2023-03-28T10:31:39.770Z,100216.25
2023-03-28T10:36:44.066Z,100227.41
2023-03-28T10:42:01.866Z,100252.81
2023-03-28T10:47:18.663Z,100245.19
2023-03-28T10:52:39.874Z,100242.09
2023-03-28T10:58:09.909Z,100227.31
2023-03-28T11:03:23.933Z,100224.84
2023-03-28T11:09:31.835Z,100219.72
2023-03-28T11:15:05.862Z,100215.53
2023-03-28T11:20:51.864Z,100208.97
2023-03-28T11:26:03.824Z,100221.16
2023-03-28T11:31:17.470Z,100211.69
2023-03-28T11:36:38.982Z,100209.75
2023-03-28T11:41:44.453Z,100200.88
2023-03-28T11:47:08.863Z,100228.31
2023-03-28T11:52:34.947Z,100210.72
2023-03-28T11:58:00.885Z,100206.44
2023-03-28T12:03:30.467Z,100209.41
2023-03-28T12:08:51.976Z,100211.03
2023-03-28T12:14:26.447Z,100198.88
2023-03-28T12:19:39.496Z,100218.38
2023-03-28T12:25:06.222Z,100231.06
2023-03-28T12:30:36.246Z,100223.50
2023-03-28T12:35:46.891Z,100224.63
2023-03-28T12:41:07.295Z,100252.41
2023-03-28T12:46:18.455Z,100234.44
2023-03-28T12:51:38.989Z,100245.22
2023-03-28T12:57:04.110Z,100266.53
2023-03-28T13:02:19.494Z,100262.38
2023-03-28T13:07:47.441Z,100266.78
2023-03-28T13:13:59.279Z,100272.34
2023-03-28T13:19:17.159Z,100260.34
2023-03-28T13:24:41.881Z,100273.75
2023-03-28T13:29:51.720Z,100292.88
2023-03-28T13:34:59.956Z,100315.16
2023-03-28T13:40:05.632Z,100322.38
2023-03-28T13:45:23.506Z,100339.78
2023-03-28T13:50:32.743Z,100352.78
2023-03-28T13:55:36.075Z,100352.78
2023-03-28T14:00:39.598Z,100346.97
2023-03-28T14:05:45.839Z,100350.06
2023-03-28T14:10:52.236Z,100358.16
2023-03-28T14:15:56.042Z,100364.91
2023-03-28T14:21:00.617Z,100359.78
2023-03-28T14:26:18.410Z,100378.84
2023-03-28T14:31:38.487Z,100369.84
2023-03-28T14:37:18.698Z,100362.88
2023-03-28T14:42:23.960Z,100376.06
2023-03-28T14:47:33.376Z,100393.72
2023-03-28T14:52:40.944Z,100392.91
2023-03-28T14:57:46.408Z,100394.97
2023-03-28T15:02:52.371Z,100416.69
2023-03-28T15:08:02.481Z,100411.97
2023-03-28T15:13:23.439Z,100415.69
2023-03-28T15:18:34.150Z,100420.72
2023-03-28T15:23:56.913Z,100423.47
2023-03-28T15:29:01.009Z,100424.31
2023-03-28T15:34:11.371Z,100431.16
2023-03-28T15:39:25.698Z,100436.69
2023-03-28T15:44:38.588Z,100432.59
2023-03-28T15:49:41.606Z,100477.59
2023-03-28T15:54:54.310Z,100450.53
2023-03-28T16:00:00.880Z,100465.72
2023-03-28T16:05:34.925Z,100487.84
2023-03-28T16:10:39.985Z,100506.88
2023-03-28T16:15:43.698Z,100500.63
2023-03-28T16:20:47.054Z,100530.22
2023-03-28T16:25:50.346Z,100530.69
2023-03-28T16:30:53.331Z,100524.56
2023-03-28T16:35:56.503Z,100552.03
2023-03-28T16:40:59.702Z,100563.09
2023-03-28T16:46:03.017Z,100571.34
2023-03-28T16:51:06.978Z,100594.59
2023-03-28T16:56:15.354Z,100614.56
2023-03-28T17:01:21.475Z,100617.78
2023-03-28T17:06:25.042Z,100624.84
2023-03-28T17:11:28.366Z,100623.34
2023-03-28T17:16:31.544Z,100631.09
2023-03-28T17:21:35.069Z,100645.63
2023-03-28T17:26:38.176Z,100664.22
2023-03-28T17:31:40.996Z,100669.47
2023-03-28T17:36:44.480Z,100670.94
2023-03-28T17:41:48.099Z,100678.47
2023-03-28T17:46:51.963Z,100680.91
2023-03-28T17:51:56.736Z,100681.38
2023-03-28T17:57:00.325Z,100704.56
2023-03-28T18:02:04.198Z,100705.19
2023-03-28T18:07:16.371Z,100715.97
2023-03-28T18:12:21.469Z,100712.69
2023-03-28T18:17:24.604Z,100715.28
2023-03-28T18:22:28.280Z,100719.44
2023-03-28T18:27:31.507Z,100726.66
2023-03-28T18:32:36.616Z,100738.69
2023-03-28T18:37:39.797Z,100742.25
2023-03-28T18:42:43.083Z,100737.03
2023-03-28T18:47:46.699Z,100739.66
2023-03-28T18:52:49.844Z,100734.69
2023-03-28T18:57:53.109Z,100739.84
2023-03-28T19:02:56.496Z,100733.22
2023-03-28T19:07:59.739Z,100738.31
2023-03-28T19:13:03.053Z,100747.56
2023-03-28T19:18:06.961Z,100751.31
2023-03-28T19:23:10.361Z,100744.31
2023-03-28T19:28:13.299Z,100747.78
2023-03-28T19:33:16.435Z,100750.94
2023-03-28T19:38:19.987Z,100744.38
2023-03-28T19:43:24.393Z,100736.63
2023-03-28T19:48:27.671Z,100732.50
2023-03-28T19:53:31.312Z,100727.66
2023-03-28T19:58:35.057Z,100725.91
2023-03-28T20:03:38.503Z,100731.53
2023-03-28T20:08:42.851Z,100738.63
2023-03-28T20:13:47.188Z,100732.00
2023-03-28T20:18:50.176Z,100733.03
2023-03-28T20:23:54.519Z,100736.56
2023-03-28T20:28:59.644Z,100746.38
2023-03-28T20:34:03.186Z,100751.03
2023-03-28T20:39:06.221Z,100743.09
2023-03-28T20:44:09.493Z,100746.09
2023-03-28T20:49:12.816Z,100748.22
2023-03-28T20:54:16.255Z,100744.31
2023-03-28T20:59:20.158Z,100764.03
2023-03-28T21:04:23.871Z,100754.44
2023-03-28T21:09:27.080Z,100754.88
2023-03-28T21:14:30.523Z,100746.09
2023-03-28T21:19:34.569Z,100758.84
2023-03-28T21:24:37.545Z,100771.53
2023-03-28T21:29:40.543Z,100762.94
2023-03-28T21:34:44.825Z,100766.97
2023-03-28T21:39:47.967Z,100764.03
2023-03-28T21:44:52.054Z,100785.97
2023-03-28T21:49:55.112Z,100785.81
2023-03-28T21:54:58.096Z,100790.00
2023-03-28T22:00:01.626Z,100784.75
2023-03-28T22:05:15.519Z,100787.31
2023-03-28T22:10:26.787Z,100792.97
2023-03-28T22:15:31.671Z,100801.84
2023-03-28T22:20:36.055Z,100807.25
2023-03-28T22:25:39.489Z,100818.59
2023-03-28T22:30:42.956Z,100824.91
2023-03-28T22:35:49.491Z,100835.91
2023-03-28T22:40:52.491Z,100829.59
2023-03-28T22:45:56.648Z,100840.50
2023-03-28T22:51:01.656Z,100845.06
2023-03-28T22:56:06.628Z,100849.97
2023-03-28T23:01:09.603Z,100844.50
2023-03-28T23:06:13.234Z,100851.22
2023-03-28T23:11:16.222Z,100868.09
2023-03-28T23:16:19.249Z,100877.34
2023-03-28T23:21:23.054Z,100879.09
2023-03-28T23:26:26.504Z,100881.53
2023-03-28T23:31:29.713Z,100884.84
2023-03-28T23:36:32.877Z,100889.94
2023-03-28T23:41:35.843Z,100901.75
2023-03-28T23:46:39.634Z,100900.25
2023-03-28T23:51:42.908Z,100903.84
2023-03-28T23:56:46.358Z,100918.03
